Lyndonville, VT

5:05 AM EDT on September 20, 2014 (GMT -0400)
Mount Washington Regional | Change Station
CLOSE
Current Station
Airport
Location: Whitefield,
Elevation: 1073 ft
Nearby Weather Stations

Elev 1073 ft 44.37 °N, 71.54 °W | Updated 13 minutes ago

Partly Cloudy
Partly Cloudy
31 °F
Feels Like 28 °F
N
4
Wind Variable Wind from West

Today
High -- | Low -- °F
--% Chance of Precip.
Yesterday
High -- | Low -- °F
Precip. -- in
6:32 AM 6:49 PM
Waning Crescent, 13% visible
Pressure 30.31 in
Visibility 10.0 miles
Clouds Mostly Cloudy 4500 ft
Windchill 28 °F
Dew Point 29 °F
Humidity 92%
Rainfall 0.00 in
Snow Depth Not available.
UV 0 out of 12
Pollen 2.00 out of 12
Ozone Good
PM2.5 Good
Flu Activity Not available.
METAR KHIE 200852Z AUTO 26003KT 10SM BKN045 M01/M02 A3028 RMK AO2 SLP263 I3000 T10061017 58008

More Conditions Fewer Conditions

Pressure 30.31 in
Visibility 10.0 miles
Clouds Mostly Cloudy 4500 ft
Windchill 28 °F
Dew Point 29 °F
Humidity 92%
Rainfall 0.00 in
Snow Depth Not available.
UV 0 out of 12
Pollen 2.00 out of 12
Ozone Good
PM2.5 Good
Flu Activity Not available.
METAR KHIE 200852Z AUTO 26003KT 10SM BKN045 M01/M02 A3028 RMK AO2 SLP263 I3000 T10061017 58008

More Conditions Fewer Conditions

10-Day Weather Forecast

Almanac

Astronomy

Sep. 20, 2014 Rise Set
Actual Time 6:32 AM EDT 6:49 PM EDT
Civil Twilight 6:03 AM EDT 7:18 PM EDT
Nautical Twilight 5:29 AM EDT 7:52 PM EDT
Astronomical Twilight 4:54 AM EDT 8:27 PM EDT
Moon 3:02 AM EDT 4:56 PM EDT
Length of Visible Light 13h 14m
Length of Day
12h 16m
Tomorrow will be 3m 3s shorter.
Waning Crescent, 13% of the Moon is Illuminated
Today
Waning Crescent
Sep 24
New
Oct 1
First Quarter
Oct 8
Full
Oct 15
Last Quarter

Today's Extremes

State Highs State Lows

Community

WunderPhotos

Upload Photos

1,754,793 photos uploaded!

WunderBlogs® & News

Nearby

Air Quality

  Air Quality AQ Index Pollutant
Yesterday Good
OZONE
Yesterday Good
PM2.5
Current Good
OZONE
Current Good
PM2.5
Saturday Good
PM2.5
Saturday Good
OZONE
Sunday Good
PM2.5
Monday Good
PM2.5

Snow Depth

Station Depth Elevation
No new snow has been reported.

Earthquake Activity

City Distance Mag. Time & Date
No recent earthquake activity has been reported nearby.
Minimum magnitude displayed is 2.5.

Coastal Water Temperatures

Place Temperature
No Stations Reporting

Nearby Weather Stations